sensor_id;sensor_type;location;lat;lon;timestamp;P1;durP1;ratioP1;P2;durP2;ratioP2
23573;SDS011;11965;53.640;10.050;2023-03-01T00:01:01;52.65;;;51.79;;
23573;SDS011;11965;53.640;10.050;2023-03-01T00:03:29;50.21;;;49.31;;
23573;SDS011;11965;53.640;10.050;2023-03-01T00:05:57;49.76;;;49.02;;
23573;SDS011;11965;53.640;10.050;2023-03-01T00:08:24;48.63;;;47.98;;
23573;SDS011;11965;53.640;10.050;2023-03-01T00:11:01;49.24;;;48.28;;
23573;SDS011;11965;53.640;10.050;2023-03-01T00:13:29;48.93;;;48.10;;
23573;SDS011;11965;53.640;10.050;2023-03-01T00:15:56;45.88;;;45.25;;
23573;SDS011;11965;53.640;10.050;2023-03-01T00:18:23;46.04;;;45.44;;
23573;SDS011;11965;53.640;10.050;2023-03-01T00:20:51;45.18;;;44.51;;
23573;SDS011;11965;53.640;10.050;2023-03-01T00:23:18;45.92;;;45.18;;
23573;SDS011;11965;53.640;10.050;2023-03-01T00:25:46;46.25;;;45.35;;
23573;SDS011;11965;53.640;10.050;2023-03-01T00:28:14;45.81;;;45.34;;
23573;SDS011;11965;53.640;10.050;2023-03-01T00:30:41;45.16;;;44.66;;
23573;SDS011;11965;53.640;10.050;2023-03-01T00:33:09;46.14;;;45.37;;
23573;SDS011;11965;53.640;10.050;2023-03-01T00:35:37;45.43;;;44.93;;
23573;SDS011;11965;53.640;10.050;2023-03-01T00:38:18;46.46;;;45.84;;
23573;SDS011;11965;53.640;10.050;2023-03-01T00:40:45;45.61;;;45.03;;
23573;SDS011;11965;53.640;10.050;2023-03-01T00:43:13;44.99;;;44.19;;
23573;SDS011;11965;53.640;10.050;2023-03-01T00:45:40;43.34;;;42.63;;
23573;SDS011;11965;53.640;10.050;2023-03-01T00:48:07;42.98;;;42.53;;
23573;SDS011;11965;53.640;10.050;2023-03-01T00:50:34;42.70;;;42.05;;
23573;SDS011;11965;53.640;10.050;2023-03-01T00:53:01;42.91;;;42.25;;
23573;SDS011;11965;53.640;10.050;2023-03-01T00:55:30;42.57;;;41.97;;
23573;SDS011;11965;53.640;10.050;2023-03-01T00:57:57;41.36;;;40.82;;
23573;SDS011;11965;53.640;10.050;2023-03-01T01:00:25;40.84;;;40.35;;
23573;SDS011;11965;53.640;10.050;2023-03-01T01:02:53;39.95;;;39.74;;
23573;SDS011;11965;53.640;10.050;2023-03-01T01:05:20;39.10;;;38.50;;
23573;SDS011;11965;53.640;10.050;2023-03-01T01:07:47;39.57;;;38.94;;
23573;SDS011;11965;53.640;10.050;2023-03-01T01:10:14;38.55;;;38.08;;
23573;SDS011;11965;53.640;10.050;2023-03-01T01:12:43;39.90;;;39.45;;
23573;SDS011;11965;53.640;10.050;2023-03-01T01:15:10;40.85;;;40.16;;
23573;SDS011;11965;53.640;10.050;2023-03-01T01:17:43;39.79;;;39.10;;
23573;SDS011;11965;53.640;10.050;2023-03-01T01:20:10;39.93;;;39.36;;
23573;SDS011;11965;53.640;10.050;2023-03-01T01:22:37;39.28;;;38.80;;
23573;SDS011;11965;53.640;10.050;2023-03-01T01:25:05;40.52;;;39.82;;
23573;SDS011;11965;53.640;10.050;2023-03-01T01:27:33;39.52;;;39.01;;
23573;SDS011;11965;53.640;10.050;2023-03-01T01:30:00;37.41;;;36.98;;
23573;SDS011;11965;53.640;10.050;2023-03-01T01:32:26;38.26;;;37.55;;
23573;SDS011;11965;53.640;10.050;2023-03-01T01:34:55;36.68;;;36.08;;
23573;SDS011;11965;53.640;10.050;2023-03-01T01:37:21;36.69;;;36.01;;
23573;SDS011;11965;53.640;10.050;2023-03-01T01:39:54;36.66;;;36.05;;
23573;SDS011;11965;53.640;10.050;2023-03-01T01:42:21;35.39;;;34.90;;
23573;SDS011;11965;53.640;10.050;2023-03-01T01:44:48;34.77;;;34.21;;
23573;SDS011;11965;53.640;10.050;2023-03-01T01:47:35;35.04;;;34.63;;
23573;SDS011;11965;53.640;10.050;2023-03-01T01:50:03;33.42;;;33.21;;
23573;SDS011;11965;53.640;10.050;2023-03-01T01:52:31;34.45;;;34.14;;
23573;SDS011;11965;53.640;10.050;2023-03-01T01:55:05;34.65;;;34.24;;
23573;SDS011;11965;53.640;10.050;2023-03-01T01:57:37;34.08;;;33.80;;
23573;SDS011;11965;53.640;10.050;2023-03-01T02:00:11;33.71;;;33.12;;
23573;SDS011;11965;53.640;10.050;2023-03-01T02:02:42;33.36;;;32.95;;
23573;SDS011;11965;53.640;10.050;2023-03-01T02:05:12;32.36;;;32.11;;
23573;SDS011;11965;53.640;10.050;2023-03-01T02:07:47;32.71;;;32.35;;
23573;SDS011;11965;53.640;10.050;2023-03-01T02:10:18;32.59;;;32.01;;
23573;SDS011;11965;53.640;10.050;2023-03-01T02:12:46;32.33;;;31.78;;
23573;SDS011;11965;53.640;10.050;2023-03-01T02:15:13;32.24;;;31.74;;
23573;SDS011;11965;53.640;10.050;2023-03-01T02:17:41;31.51;;;31.05;;
23573;SDS011;11965;53.640;10.050;2023-03-01T02:20:10;30.25;;;30.12;;
23573;SDS011;11965;53.640;10.050;2023-03-01T02:22:50;29.64;;;29.31;;
23573;SDS011;11965;53.640;10.050;2023-03-01T02:25:31;28.98;;;28.73;;
23573;SDS011;11965;53.640;10.050;2023-03-01T02:28:08;29.36;;;29.02;;
23573;SDS011;11965;53.640;10.050;2023-03-01T02:30:48;28.57;;;28.33;;
23573;SDS011;11965;53.640;10.050;2023-03-01T02:33:36;29.39;;;28.93;;
23573;SDS011;11965;53.640;10.050;2023-03-01T02:36:06;29.73;;;29.35;;
23573;SDS011;11965;53.640;10.050;2023-03-01T02:38:39;28.49;;;28.26;;
23573;SDS011;11965;53.640;10.050;2023-03-01T02:41:08;30.07;;;29.71;;
23573;SDS011;11965;53.640;10.050;2023-03-01T02:43:39;28.99;;;28.75;;
23573;SDS011;11965;53.640;10.050;2023-03-01T02:46:07;28.77;;;28.47;;
23573;SDS011;11965;53.640;10.050;2023-03-01T02:48:43;27.92;;;27.72;;
23573;SDS011;11965;53.640;10.050;2023-03-01T02:51:18;30.20;;;29.86;;
23573;SDS011;11965;53.640;10.050;2023-03-01T02:54:01;28.86;;;28.59;;
23573;SDS011;11965;53.640;10.050;2023-03-01T02:56:37;29.28;;;29.12;;
23573;SDS011;11965;53.640;10.050;2023-03-01T02:59:06;29.45;;;29.25;;
23573;SDS011;11965;53.640;10.050;2023-03-01T03:01:36;29.96;;;29.64;;
23573;SDS011;11965;53.640;10.050;2023-03-01T03:04:05;28.30;;;28.06;;
23573;SDS011;11965;53.640;10.050;2023-03-01T03:06:33;27.95;;;27.66;;
23573;SDS011;11965;53.640;10.050;2023-03-01T03:09:00;27.74;;;27.58;;
23573;SDS011;11965;53.640;10.050;2023-03-01T03:11:29;26.77;;;26.67;;
23573;SDS011;11965;53.640;10.050;2023-03-01T03:13:57;27.49;;;27.30;;
23573;SDS011;11965;53.640;10.050;2023-03-01T03:16:25;26.74;;;26.57;;
23573;SDS011;11965;53.640;10.050;2023-03-01T03:18:52;27.07;;;26.99;;
23573;SDS011;11965;53.640;10.050;2023-03-01T03:21:19;28.17;;;27.95;;
23573;SDS011;11965;53.640;10.050;2023-03-01T03:23:46;27.96;;;27.57;;
23573;SDS011;11965;53.640;10.050;2023-03-01T03:26:13;28.14;;;27.90;;
23573;SDS011;11965;53.640;10.050;2023-03-01T03:28:40;27.82;;;27.36;;
23573;SDS011;11965;53.640;10.050;2023-03-01T03:31:07;27.38;;;27.07;;
23573;SDS011;11965;53.640;10.050;2023-03-01T03:33:36;27.05;;;26.78;;
23573;SDS011;11965;53.640;10.050;2023-03-01T03:36:03;27.17;;;26.96;;
23573;SDS011;11965;53.640;10.050;2023-03-01T03:38:30;26.83;;;26.52;;
23573;SDS011;11965;53.640;10.050;2023-03-01T03:41:01;26.29;;;26.23;;
23573;SDS011;11965;53.640;10.050;2023-03-01T03:43:30;26.62;;;26.42;;
23573;SDS011;11965;53.640;10.050;2023-03-01T03:45:59;26.83;;;26.41;;
23573;SDS011;11965;53.640;10.050;2023-03-01T03:48:31;26.67;;;26.29;;
23573;SDS011;11965;53.640;10.050;2023-03-01T03:51:01;27.88;;;27.64;;
23573;SDS011;11965;53.640;10.050;2023-03-01T03:53:30;28.09;;;27.72;;
23573;SDS011;11965;53.640;10.050;2023-03-01T03:55:58;27.67;;;27.55;;
23573;SDS011;11965;53.640;10.050;2023-03-01T03:58:25;27.84;;;27.60;;
23573;SDS011;11965;53.640;10.050;2023-03-01T04:00:53;28.75;;;28.44;;
23573;SDS011;11965;53.640;10.050;2023-03-01T04:03:22;28.40;;;28.19;;
23573;SDS011;11965;53.640;10.050;2023-03-01T04:05:51;27.09;;;26.85;;
23573;SDS011;11965;53.640;10.050;2023-03-01T04:08:20;24.91;;;24.48;;
23573;SDS011;11965;53.640;10.050;2023-03-01T04:10:49;25.47;;;25.08;;
23573;SDS011;11965;53.640;10.050;2023-03-01T04:13:18;23.42;;;23.36;;
23573;SDS011;11965;53.640;10.050;2023-03-01T04:15:48;23.83;;;23.33;;
23573;SDS011;11965;53.640;10.050;2023-03-01T04:18:16;23.52;;;23.22;;
23573;SDS011;11965;53.640;10.050;2023-03-01T04:20:44;23.92;;;23.62;;
23573;SDS011;11965;53.640;10.050;2023-03-01T04:23:12;22.48;;;22.30;;
23573;SDS011;11965;53.640;10.050;2023-03-01T04:25:45;23.78;;;23.55;;
23573;SDS011;11965;53.640;10.050;2023-03-01T04:28:14;23.70;;;23.41;;
23573;SDS011;11965;53.640;10.050;2023-03-01T04:30:42;23.50;;;23.12;;
23573;SDS011;11965;53.640;10.050;2023-03-01T04:33:09;22.98;;;22.71;;
23573;SDS011;11965;53.640;10.050;2023-03-01T04:35:37;23.44;;;23.08;;
23573;SDS011;11965;53.640;10.050;2023-03-01T04:38:05;22.96;;;22.84;;
23573;SDS011;11965;53.640;10.050;2023-03-01T04:40:33;23.31;;;23.04;;
23573;SDS011;11965;53.640;10.050;2023-03-01T04:43:01;22.85;;;22.65;;
23573;SDS011;11965;53.640;10.050;2023-03-01T04:45:31;23.48;;;23.43;;
23573;SDS011;11965;53.640;10.050;2023-03-01T04:47:59;23.23;;;23.17;;
23573;SDS011;11965;53.640;10.050;2023-03-01T04:50:27;23.33;;;23.21;;
23573;SDS011;11965;53.640;10.050;2023-03-01T04:52:54;23.00;;;22.74;;
23573;SDS011;11965;53.640;10.050;2023-03-01T04:55:24;23.39;;;23.17;;
23573;SDS011;11965;53.640;10.050;2023-03-01T04:57:51;23.12;;;22.85;;
23573;SDS011;11965;53.640;10.050;2023-03-01T05:00:21;22.96;;;22.76;;
23573;SDS011;11965;53.640;10.050;2023-03-01T05:02:49;23.03;;;22.87;;
23573;SDS011;11965;53.640;10.050;2023-03-01T05:05:23;22.75;;;22.60;;
23573;SDS011;11965;53.640;10.050;2023-03-01T05:07:55;23.22;;;23.16;;
23573;SDS011;11965;53.640;10.050;2023-03-01T05:10:24;24.11;;;24.00;;
23573;SDS011;11965;53.640;10.050;2023-03-01T05:12:55;24.13;;;23.75;;
23573;SDS011;11965;53.640;10.050;2023-03-01T05:15:25;24.58;;;24.19;;
23573;SDS011;11965;53.640;10.050;2023-03-01T05:17:53;24.82;;;24.42;;
23573;SDS011;11965;53.640;10.050;2023-03-01T05:20:23;24.80;;;24.45;;
23573;SDS011;11965;53.640;10.050;2023-03-01T05:22:51;24.97;;;24.77;;
23573;SDS011;11965;53.640;10.050;2023-03-01T05:25:22;24.47;;;24.29;;
23573;SDS011;11965;53.640;10.050;2023-03-01T05:27:48;24.68;;;24.29;;
23573;SDS011;11965;53.640;10.050;2023-03-01T05:30:16;24.17;;;23.82;;
23573;SDS011;11965;53.640;10.050;2023-03-01T05:32:45;23.76;;;23.45;;
23573;SDS011;11965;53.640;10.050;2023-03-01T05:35:15;24.27;;;24.12;;
23573;SDS011;11965;53.640;10.050;2023-03-01T05:37:44;24.71;;;24.36;;
23573;SDS011;11965;53.640;10.050;2023-03-01T05:40:15;24.68;;;24.52;;
23573;SDS011;11965;53.640;10.050;2023-03-01T05:42:44;23.55;;;23.36;;
23573;SDS011;11965;53.640;10.050;2023-03-01T05:45:12;23.20;;;22.94;;
23573;SDS011;11965;53.640;10.050;2023-03-01T05:47:41;22.67;;;22.45;;
23573;SDS011;11965;53.640;10.050;2023-03-01T05:50:14;22.84;;;22.43;;
23573;SDS011;11965;53.640;10.050;2023-03-01T05:52:45;23.41;;;23.23;;
23573;SDS011;11965;53.640;10.050;2023-03-01T05:55:14;22.76;;;22.50;;
23573;SDS011;11965;53.640;10.050;2023-03-01T05:57:42;20.46;;;20.43;;
23573;SDS011;11965;53.640;10.050;2023-03-01T06:00:09;21.61;;;21.39;;
23573;SDS011;11965;53.640;10.050;2023-03-01T06:02:40;23.09;;;23.04;;
23573;SDS011;11965;53.640;10.050;2023-03-01T06:05:08;22.94;;;22.73;;
23573;SDS011;11965;53.640;10.050;2023-03-01T06:07:37;24.68;;;24.32;;
23573;SDS011;11965;53.640;10.050;2023-03-01T06:10:05;25.15;;;24.71;;
23573;SDS011;11965;53.640;10.050;2023-03-01T06:12:34;24.38;;;23.89;;
23573;SDS011;11965;53.640;10.050;2023-03-01T06:15:04;24.04;;;23.76;;
23573;SDS011;11965;53.640;10.050;2023-03-01T06:17:35;23.66;;;23.53;;
23573;SDS011;11965;53.640;10.050;2023-03-01T06:20:05;23.74;;;23.45;;
23573;SDS011;11965;53.640;10.050;2023-03-01T06:22:34;23.63;;;23.17;;
23573;SDS011;11965;53.640;10.050;2023-03-01T06:25:03;23.61;;;23.28;;
23573;SDS011;11965;53.640;10.050;2023-03-01T06:27:31;24.31;;;23.93;;
23573;SDS011;11965;53.640;10.050;2023-03-01T06:29:58;22.76;;;22.60;;
23573;SDS011;11965;53.640;10.050;2023-03-01T06:32:25;22.45;;;22.14;;
23573;SDS011;11965;53.640;10.050;2023-03-01T06:34:52;22.47;;;22.28;;
23573;SDS011;11965;53.640;10.050;2023-03-01T06:37:19;22.64;;;22.41;;
23573;SDS011;11965;53.640;10.050;2023-03-01T06:39:46;23.86;;;23.53;;
23573;SDS011;11965;53.640;10.050;2023-03-01T06:42:14;23.21;;;22.93;;
23573;SDS011;11965;53.640;10.050;2023-03-01T06:44:41;25.63;;;25.45;;
23573;SDS011;11965;53.640;10.050;2023-03-01T06:47:07;24.77;;;24.63;;
23573;SDS011;11965;53.640;10.050;2023-03-01T06:49:34;23.74;;;23.49;;
23573;SDS011;11965;53.640;10.050;2023-03-01T06:52:01;22.75;;;22.44;;
23573;SDS011;11965;53.640;10.050;2023-03-01T06:54:28;22.66;;;22.62;;
23573;SDS011;11965;53.640;10.050;2023-03-01T06:56:55;22.26;;;22.05;;
23573;SDS011;11965;53.640;10.050;2023-03-01T06:59:23;22.54;;;22.45;;
23573;SDS011;11965;53.640;10.050;2023-03-01T07:01:50;21.46;;;21.19;;
23573;SDS011;11965;53.640;10.050;2023-03-01T07:04:17;20.75;;;20.50;;
23573;SDS011;11965;53.640;10.050;2023-03-01T07:06:43;20.04;;;19.92;;
23573;SDS011;11965;53.640;10.050;2023-03-01T07:09:10;19.81;;;19.58;;
23573;SDS011;11965;53.640;10.050;2023-03-01T07:11:37;19.05;;;18.91;;
23573;SDS011;11965;53.640;10.050;2023-03-01T07:14:04;18.58;;;18.55;;
23573;SDS011;11965;53.640;10.050;2023-03-01T07:16:33;17.86;;;17.82;;
23573;SDS011;11965;53.640;10.050;2023-03-01T07:19:00;18.20;;;18.15;;
23573;SDS011;11965;53.640;10.050;2023-03-01T07:21:27;29.61;;;29.57;;
23573;SDS011;11965;53.640;10.050;2023-03-01T07:23:56;23.12;;;23.11;;
23573;SDS011;11965;53.640;10.050;2023-03-01T07:26:23;17.98;;;17.78;;
23573;SDS011;11965;53.640;10.050;2023-03-01T07:28:50;17.80;;;17.75;;
23573;SDS011;11965;53.640;10.050;2023-03-01T07:31:17;18.04;;;17.90;;
23573;SDS011;11965;53.640;10.050;2023-03-01T07:33:45;17.99;;;17.89;;
23573;SDS011;11965;53.640;10.050;2023-03-01T07:36:12;17.75;;;17.74;;
23573;SDS011;11965;53.640;10.050;2023-03-01T07:38:38;17.78;;;17.75;;
23573;SDS011;11965;53.640;10.050;2023-03-01T07:41:05;18.00;;;17.94;;
23573;SDS011;11965;53.640;10.050;2023-03-01T07:43:32;18.59;;;18.47;;
23573;SDS011;11965;53.640;10.050;2023-03-01T07:46:00;19.25;;;19.18;;
23573;SDS011;11965;53.640;10.050;2023-03-01T07:48:28;20.03;;;19.53;;
23573;SDS011;11965;53.640;10.050;2023-03-01T07:50:58;19.90;;;19.67;;
23573;SDS011;11965;53.640;10.050;2023-03-01T07:53:26;20.61;;;20.52;;
23573;SDS011;11965;53.640;10.050;2023-03-01T07:56:00;19.92;;;19.86;;
23573;SDS011;11965;53.640;10.050;2023-03-01T07:58:27;20.44;;;20.24;;
23573;SDS011;11965;53.640;10.050;2023-03-01T08:00:54;21.02;;;20.68;;
23573;SDS011;11965;53.640;10.050;2023-03-01T08:03:21;20.76;;;20.47;;
23573;SDS011;11965;53.640;10.050;2023-03-01T08:05:48;21.51;;;21.35;;
23573;SDS011;11965;53.640;10.050;2023-03-01T08:08:16;23.09;;;23.02;;
23573;SDS011;11965;53.640;10.050;2023-03-01T08:10:43;24.13;;;23.66;;
23573;SDS011;11965;53.640;10.050;2023-03-01T08:13:10;25.06;;;24.89;;
23573;SDS011;11965;53.640;10.050;2023-03-01T08:15:37;25.33;;;25.15;;
23573;SDS011;11965;53.640;10.050;2023-03-01T08:18:04;26.31;;;25.75;;
23573;SDS011;11965;53.640;10.050;2023-03-01T08:20:31;25.90;;;25.65;;
23573;SDS011;11965;53.640;10.050;2023-03-01T08:22:58;24.26;;;24.25;;
23573;SDS011;11965;53.640;10.050;2023-03-01T08:25:27;27.30;;;27.22;;
23573;SDS011;11965;53.640;10.050;2023-03-01T08:27:53;28.07;;;28.07;;
23573;SDS011;11965;53.640;10.050;2023-03-01T08:30:20;37.81;;;37.81;;
23573;SDS011;11965;53.640;10.050;2023-03-01T08:32:49;27.78;;;27.78;;
23573;SDS011;11965;53.640;10.050;2023-03-01T08:35:16;75.65;;;75.62;;
23573;SDS011;11965;53.640;10.050;2023-03-01T08:37:43;31.91;;;31.91;;
23573;SDS011;11965;53.640;10.050;2023-03-01T08:40:11;28.03;;;27.99;;
23573;SDS011;11965;53.640;10.050;2023-03-01T08:42:40;26.94;;;26.87;;
23573;SDS011;11965;53.640;10.050;2023-03-01T08:45:09;27.29;;;27.29;;
23573;SDS011;11965;53.640;10.050;2023-03-01T08:47:37;28.04;;;27.82;;
23573;SDS011;11965;53.640;10.050;2023-03-01T08:50:05;25.54;;;25.29;;
23573;SDS011;11965;53.640;10.050;2023-03-01T08:52:32;46.94;;;46.92;;
23573;SDS011;11965;53.640;10.050;2023-03-01T08:54:59;25.01;;;24.79;;
23573;SDS011;11965;53.640;10.050;2023-03-01T08:57:27;30.22;;;30.12;;
23573;SDS011;11965;53.640;10.050;2023-03-01T08:59:55;30.06;;;29.71;;
23573;SDS011;11965;53.640;10.050;2023-03-01T09:02:22;25.16;;;25.05;;
23573;SDS011;11965;53.640;10.050;2023-03-01T09:04:49;24.84;;;24.62;;
23573;SDS011;11965;53.640;10.050;2023-03-01T09:07:16;24.88;;;24.65;;
23573;SDS011;11965;53.640;10.050;2023-03-01T09:09:43;25.05;;;24.73;;
23573;SDS011;11965;53.640;10.050;2023-03-01T09:12:09;24.51;;;24.42;;
23573;SDS011;11965;53.640;10.050;2023-03-01T09:14:36;24.64;;;24.64;;
23573;SDS011;11965;53.640;10.050;2023-03-01T09:17:05;24.32;;;24.23;;
23573;SDS011;11965;53.640;10.050;2023-03-01T09:19:32;24.13;;;23.90;;
23573;SDS011;11965;53.640;10.050;2023-03-01T09:21:59;24.93;;;24.78;;
23573;SDS011;11965;53.640;10.050;2023-03-01T09:24:26;27.23;;;27.08;;
23573;SDS011;11965;53.640;10.050;2023-03-01T09:26:53;26.07;;;25.47;;
23573;SDS011;11965;53.640;10.050;2023-03-01T09:29:21;26.53;;;25.93;;
23573;SDS011;11965;53.640;10.050;2023-03-01T09:31:48;24.00;;;23.66;;
23573;SDS011;11965;53.640;10.050;2023-03-01T09:34:17;28.39;;;28.09;;
23573;SDS011;11965;53.640;10.050;2023-03-01T09:36:48;26.50;;;25.71;;
23573;SDS011;11965;53.640;10.050;2023-03-01T09:39:15;24.22;;;23.50;;
23573;SDS011;11965;53.640;10.050;2023-03-01T09:41:47;25.00;;;24.30;;
23573;SDS011;11965;53.640;10.050;2023-03-01T09:44:28;23.04;;;22.58;;
23573;SDS011;11965;53.640;10.050;2023-03-01T09:47:02;23.29;;;23.10;;
23573;SDS011;11965;53.640;10.050;2023-03-01T09:49:33;23.89;;;23.61;;
23573;SDS011;11965;53.640;10.050;2023-03-01T09:52:03;23.29;;;23.04;;
23573;SDS011;11965;53.640;10.050;2023-03-01T09:54:46;22.41;;;22.26;;
23573;SDS011;11965;53.640;10.050;2023-03-01T09:57:17;22.18;;;21.73;;
23573;SDS011;11965;53.640;10.050;2023-03-01T09:59:56;22.53;;;21.88;;
23573;SDS011;11965;53.640;10.050;2023-03-01T10:02:38;22.30;;;21.89;;
23573;SDS011;11965;53.640;10.050;2023-03-01T10:05:17;22.22;;;22.00;;
23573;SDS011;11965;53.640;10.050;2023-03-01T10:07:58;21.93;;;21.82;;
23573;SDS011;11965;53.640;10.050;2023-03-01T10:10:46;22.01;;;21.63;;
23573;SDS011;11965;53.640;10.050;2023-03-01T10:13:15;22.45;;;22.30;;
23573;SDS011;11965;53.640;10.050;2023-03-01T10:15:48;23.80;;;23.40;;
23573;SDS011;11965;53.640;10.050;2023-03-01T10:18:23;23.45;;;23.04;;
23573;SDS011;11965;53.640;10.050;2023-03-01T10:20:57;22.33;;;22.22;;
23573;SDS011;11965;53.640;10.050;2023-03-01T10:23:27;22.47;;;22.23;;
23573;SDS011;11965;53.640;10.050;2023-03-01T10:26:07;22.63;;;22.31;;
23573;SDS011;11965;53.640;10.050;2023-03-01T10:28:56;21.49;;;21.28;;
23573;SDS011;11965;53.640;10.050;2023-03-01T10:31:32;22.68;;;22.24;;
23573;SDS011;11965;53.640;10.050;2023-03-01T10:34:13;20.68;;;20.51;;
23573;SDS011;11965;53.640;10.050;2023-03-01T10:36:43;21.50;;;20.98;;
23573;SDS011;11965;53.640;10.050;2023-03-01T10:39:15;21.13;;;20.84;;
23573;SDS011;11965;53.640;10.050;2023-03-01T10:41:57;21.22;;;21.00;;
23573;SDS011;11965;53.640;10.050;2023-03-01T10:47:20;20.40;;;20.00;;
23573;SDS011;11965;53.640;10.050;2023-03-01T10:49:51;18.73;;;18.64;;
23573;SDS011;11965;53.640;10.050;2023-03-01T10:52:21;16.54;;;16.44;;
23573;SDS011;11965;53.640;10.050;2023-03-01T10:54:51;17.50;;;17.07;;
23573;SDS011;11965;53.640;10.050;2023-03-01T10:57:32;17.34;;;16.91;;
23573;SDS011;11965;53.640;10.050;2023-03-01T11:00:19;16.81;;;16.44;;
23573;SDS011;11965;53.640;10.050;2023-03-01T11:02:49;15.20;;;14.87;;
23573;SDS011;11965;53.640;10.050;2023-03-01T11:05:27;15.44;;;15.25;;
23573;SDS011;11965;53.640;10.050;2023-03-01T11:07:57;16.15;;;15.88;;
23573;SDS011;11965;53.640;10.050;2023-03-01T11:10:26;15.33;;;15.10;;
23573;SDS011;11965;53.640;10.050;2023-03-01T11:13:05;14.54;;;14.21;;
23573;SDS011;11965;53.640;10.050;2023-03-01T11:15:34;14.07;;;13.84;;
23573;SDS011;11965;53.640;10.050;2023-03-01T11:18:01;13.94;;;13.92;;
23573;SDS011;11965;53.640;10.050;2023-03-01T11:20:29;13.31;;;13.06;;
23573;SDS011;11965;53.640;10.050;2023-03-01T11:23:03;12.17;;;11.88;;
23573;SDS011;11965;53.640;10.050;2023-03-01T11:25:35;12.41;;;11.98;;
23573;SDS011;11965;53.640;10.050;2023-03-01T11:28:06;12.07;;;11.91;;
23573;SDS011;11965;53.640;10.050;2023-03-01T11:30:44;12.51;;;12.31;;
23573;SDS011;11965;53.640;10.050;2023-03-01T11:33:20;12.06;;;12.02;;
23573;SDS011;11965;53.640;10.050;2023-03-01T11:36:00;11.61;;;11.57;;
23573;SDS011;11965;53.640;10.050;2023-03-01T11:38:36;12.96;;;12.91;;
23573;SDS011;11965;53.640;10.050;2023-03-01T11:41:05;13.98;;;13.78;;
23573;SDS011;11965;53.640;10.050;2023-03-01T11:43:36;13.55;;;13.28;;
23573;SDS011;11965;53.640;10.050;2023-03-01T11:49:21;11.91;;;11.51;;
23573;SDS011;11965;53.640;10.050;2023-03-01T11:52:12;12.82;;;12.44;;
23573;SDS011;11965;53.640;10.050;2023-03-01T11:54:57;13.32;;;12.94;;
23573;SDS011;11965;53.640;10.050;2023-03-01T11:57:49;12.98;;;12.80;;
23573;SDS011;11965;53.640;10.050;2023-03-01T12:00:37;13.44;;;13.07;;
23573;SDS011;11965;53.640;10.050;2023-03-01T12:03:23;13.02;;;12.62;;
23573;SDS011;11965;53.640;10.050;2023-03-01T12:06:00;12.51;;;12.25;;
23573;SDS011;11965;53.640;10.050;2023-03-01T12:08:53;12.64;;;12.30;;
23573;SDS011;11965;53.640;10.050;2023-03-01T12:11:39;11.91;;;11.67;;
23573;SDS011;11965;53.640;10.050;2023-03-01T12:14:27;12.28;;;11.91;;
23573;SDS011;11965;53.640;10.050;2023-03-01T12:26:05;11.80;;;11.58;;
23573;SDS011;11965;53.640;10.050;2023-03-01T12:37:42;10.47;;;10.23;;
23573;SDS011;11965;53.640;10.050;2023-03-01T12:43:16;10.67;;;10.23;;
23573;SDS011;11965;53.640;10.050;2023-03-01T12:46:00;10.63;;;10.24;;
23573;SDS011;11965;53.640;10.050;2023-03-01T12:48:43;9.56;;;9.56;;
23573;SDS011;11965;53.640;10.050;2023-03-01T12:51:21;9.53;;;9.49;;
23573;SDS011;11965;53.640;10.050;2023-03-01T12:53:53;9.95;;;9.66;;
23573;SDS011;11965;53.640;10.050;2023-03-01T12:56:25;10.51;;;10.21;;
23573;SDS011;11965;53.640;10.050;2023-03-01T12:58:57;9.91;;;9.78;;
23573;SDS011;11965;53.640;10.050;2023-03-01T13:01:40;10.22;;;10.00;;
23573;SDS011;11965;53.640;10.050;2023-03-01T13:04:19;10.22;;;9.98;;
23573;SDS011;11965;53.640;10.050;2023-03-01T13:07:09;9.68;;;9.52;;
23573;SDS011;11965;53.640;10.050;2023-03-01T13:09:51;9.24;;;9.20;;
23573;SDS011;11965;53.640;10.050;2023-03-01T13:13:00;8.39;;;8.35;;
23573;SDS011;11965;53.640;10.050;2023-03-01T13:15:39;9.65;;;9.48;;
23573;SDS011;11965;53.640;10.050;2023-03-01T13:21:00;9.44;;;9.31;;
23573;SDS011;11965;53.640;10.050;2023-03-01T13:23:31;8.12;;;8.11;;
23573;SDS011;11965;53.640;10.050;2023-03-01T13:26:03;8.77;;;8.77;;
23573;SDS011;11965;53.640;10.050;2023-03-01T13:28:46;9.92;;;9.82;;
23573;SDS011;11965;53.640;10.050;2023-03-01T13:37:20;9.10;;;9.09;;
23573;SDS011;11965;53.640;10.050;2023-03-01T13:39:55;9.28;;;9.21;;
23573;SDS011;11965;53.640;10.050;2023-03-01T13:42:34;9.56;;;9.54;;
23573;SDS011;11965;53.640;10.050;2023-03-01T13:45:17;8.64;;;8.60;;
23573;SDS011;11965;53.640;10.050;2023-03-01T13:47:49;7.88;;;7.77;;
23573;SDS011;11965;53.640;10.050;2023-03-01T13:50:24;8.59;;;8.59;;
23573;SDS011;11965;53.640;10.050;2023-03-01T13:52:57;8.36;;;8.23;;
23573;SDS011;11965;53.640;10.050;2023-03-01T13:55:34;8.30;;;8.23;;
23573;SDS011;11965;53.640;10.050;2023-03-01T13:58:15;9.11;;;8.98;;
23573;SDS011;11965;53.640;10.050;2023-03-01T14:00:47;9.23;;;8.92;;
23573;SDS011;11965;53.640;10.050;2023-03-01T14:03:21;8.48;;;8.44;;
23573;SDS011;11965;53.640;10.050;2023-03-01T14:05:58;8.14;;;8.14;;
23573;SDS011;11965;53.640;10.050;2023-03-01T14:08:30;8.50;;;8.50;;
23573;SDS011;11965;53.640;10.050;2023-03-01T14:14:01;9.74;;;9.71;;
23573;SDS011;11965;53.640;10.050;2023-03-01T14:16:45;9.40;;;9.32;;
23573;SDS011;11965;53.640;10.050;2023-03-01T14:19:23;9.49;;;9.39;;
23573;SDS011;11965;53.640;10.050;2023-03-01T14:21:58;9.80;;;9.78;;
23573;SDS011;11965;53.640;10.050;2023-03-01T14:24:31;10.06;;;9.84;;
23573;SDS011;11965;53.640;10.050;2023-03-01T14:27:04;10.04;;;10.00;;
23573;SDS011;11965;53.640;10.050;2023-03-01T14:29:38;10.43;;;10.37;;
23573;SDS011;11965;53.640;10.050;2023-03-01T14:32:12;11.12;;;11.12;;
23573;SDS011;11965;53.640;10.050;2023-03-01T14:34:46;11.42;;;11.41;;
23573;SDS011;11965;53.640;10.050;2023-03-01T14:37:20;11.45;;;11.40;;
23573;SDS011;11965;53.640;10.050;2023-03-01T14:39:50;11.25;;;11.14;;
23573;SDS011;11965;53.640;10.050;2023-03-01T14:42:18;10.65;;;10.27;;
23573;SDS011;11965;53.640;10.050;2023-03-01T14:44:48;9.94;;;9.88;;
23573;SDS011;11965;53.640;10.050;2023-03-01T14:47:25;10.22;;;10.22;;
23573;SDS011;11965;53.640;10.050;2023-03-01T14:49:57;10.31;;;10.25;;
23573;SDS011;11965;53.640;10.050;2023-03-01T14:52:30;9.51;;;9.42;;
23573;SDS011;11965;53.640;10.050;2023-03-01T14:55:03;9.45;;;9.45;;
23573;SDS011;11965;53.640;10.050;2023-03-01T14:57:33;10.22;;;10.22;;
23573;SDS011;11965;53.640;10.050;2023-03-01T15:00:01;10.48;;;10.44;;
23573;SDS011;11965;53.640;10.050;2023-03-01T15:02:33;9.90;;;9.90;;
23573;SDS011;11965;53.640;10.050;2023-03-01T15:05:02;9.94;;;9.88;;
23573;SDS011;11965;53.640;10.050;2023-03-01T15:07:31;11.15;;;11.10;;
23573;SDS011;11965;53.640;10.050;2023-03-01T15:10:05;10.95;;;10.95;;
23573;SDS011;11965;53.640;10.050;2023-03-01T15:12:34;10.79;;;10.74;;